Time;durP1;ratioP1;P1;durP2;ratioP2;P2;SDS_P1;SDS_P2;PMS_P1;PMS_P2;Temp;Humidity;BMP_temperature;BMP_pressure;BME280_temperature;BME280_humidity;BME280_pressure;Samples;Min_cycle;Max_cycle;Signal;HPM_P1;HPM_P2
2020/12/28 00:02:24;;;;;;;8.27;3.38;;;1.70;85.60;;;;;;4982746;28;20050;-94
2020/12/28 00:04:50;;;;;;;13.00;3.75;;;1.70;85.70;;;;;;4978056;28;20117;-94
2020/12/28 00:07:16;;;;;;;7.80;2.78;;;1.70;85.60;;;;;;4978025;28;20105;-91
2020/12/28 00:09:42;;;;;;;7.38;3.00;;;1.60;85.10;;;;;;4983721;28;20027;-91
2020/12/28 00:12:08;;;;;;;8.10;3.05;;;1.60;84.90;;;;;;4986506;28;20034;-92
2020/12/28 00:14:34;;;;;;;9.20;3.35;;;1.50;85.50;;;;;;4977715;28;20113;-91
2020/12/28 00:17:00;;;;;;;8.60;2.92;;;1.60;85.70;;;;;;4988569;28;20067;-91
2020/12/28 00:19:25;;;;;;;7.57;3.35;;;1.60;85.80;;;;;;4977261;28;20386;-91
2020/12/28 00:21:59;;;;;;;8.13;3.08;;;1.60;85.70;;;;;;4986577;28;20058;-92
2020/12/28 00:24:25;;;;;;;8.30;3.40;;;1.70;85.90;;;;;;4945157;28;20047;-93
2020/12/28 00:26:51;;;;;;;8.90;3.28;;;1.80;86.00;;;;;;4978531;28;20018;-95
2020/12/28 00:29:17;;;;;;;6.97;3.35;;;1.80;85.90;;;;;;4978983;28;20033;-94
2020/12/28 00:31:43;;;;;;;7.03;2.80;;;1.80;86.00;;;;;;4962481;28;20027;-93
2020/12/28 00:34:11;;;;;;;7.63;3.33;;;1.80;86.00;;;;;;4979728;28;20498;-94
2020/12/28 00:36:40;;;;;;;7.93;3.50;;;1.80;85.80;;;;;;4978609;28;20031;-95
2020/12/28 00:39:06;;;;;;;7.00;2.90;;;1.90;85.90;;;;;;4978242;28;20034;-94
2020/12/28 00:41:32;;;;;;;6.85;2.95;;;1.90;85.80;;;;;;4979392;28;20029;-94
2020/12/28 00:43:58;;;;;;;7.50;3.03;;;1.90;85.80;;;;;;4977458;28;20015;-94
2020/12/28 00:46:25;;;;;;;10.43;3.85;;;1.90;85.80;;;;;;4978626;28;20019;-94
2020/12/28 00:48:50;;;;;;;9.70;3.85;;;1.90;85.60;;;;;;4977889;28;20026;-95
2020/12/28 00:51:16;;;;;;;8.02;3.33;;;2.00;85.80;;;;;;4978025;28;20117;-95
2020/12/28 00:53:42;;;;;;;7.80;3.38;;;1.90;85.10;;;;;;4952066;28;20535;-93
2020/12/28 00:56:07;;;;;;;9.80;3.05;;;1.90;85.40;;;;;;4963726;28;20065;-93
2020/12/28 00:58:37;;;;;;;8.50;3.42;;;1.90;85.70;;;;;;4981927;28;20027;-93
2020/12/28 01:01:06;;;;;;;7.72;3.30;;;1.90;85.40;;;;;;4977462;28;20027;-93
2020/12/28 01:03:32;;;;;;;9.70;4.13;;;1.70;85.20;;;;;;4987588;28;20037;-93
2020/12/28 01:06:03;;;;;;;6.20;2.92;;;1.80;85.10;;;;;;4979315;28;21257;-92
2020/12/28 01:08:29;;;;;;;8.88;3.55;;;1.80;85.60;;;;;;4979173;28;20103;-93
2020/12/28 01:10:56;;;;;;;8.80;3.65;;;1.70;85.10;;;;;;4978564;28;20035;-93
2020/12/28 01:13:21;;;;;;;9.68;4.25;;;1.70;85.40;;;;;;4977777;28;20515;-93
2020/12/28 01:15:47;;;;;;;8.45;3.40;;;1.70;85.40;;;;;;4986558;28;20043;-92
2020/12/28 01:18:13;;;;;;;7.88;3.42;;;1.70;85.50;;;;;;4991906;28;20039;-92
2020/12/28 01:20:41;;;;;;;7.50;2.70;;;1.80;85.40;;;;;;4981193;28;20022;-94
2020/12/28 01:23:07;;;;;;;9.05;3.47;;;1.70;85.00;;;;;;4979055;28;20070;-93
2020/12/28 01:25:33;;;;;;;7.57;3.17;;;1.70;85.00;;;;;;4988601;28;20003;-92
2020/12/28 01:27:59;;;;;;;8.63;3.15;;;1.60;85.10;;;;;;4965777;28;20027;-94
2020/12/28 01:30:28;;;;;;;7.28;2.97;;;1.60;85.10;;;;;;4950166;28;20027;-95
2020/12/28 01:32:54;;;;;;;8.18;3.28;;;1.60;85.40;;;;;;4976833;28;20015;-93
2020/12/28 01:35:19;;;;;;;8.10;3.08;;;1.60;85.50;;;;;;4978275;28;20364;-94
2020/12/28 01:37:46;;;;;;;6.95;2.90;;;1.60;85.70;;;;;;4977034;28;20039;-92
2020/12/28 01:40:12;;;;;;;7.57;2.97;;;1.60;85.50;;;;;;4976651;28;20023;-93
2020/12/28 01:42:37;;;;;;;8.38;3.40;;;1.60;85.40;;;;;;4946783;28;20026;-93
2020/12/28 01:45:05;;;;;;;10.45;3.42;;;1.60;85.70;;;;;;4961462;28;20027;-94
2020/12/28 01:47:30;;;;;;;11.55;3.60;;;1.70;85.50;;;;;;4983615;28;20042;-92
2020/12/28 01:49:56;;;;;;;8.98;3.63;;;1.70;85.50;;;;;;4959121;28;20023;-91
2020/12/28 01:52:23;;;;;;;8.93;3.47;;;1.70;85.50;;;;;;4974564;28;20074;-91
2020/12/28 01:54:49;;;;;;;10.38;3.70;;;1.70;85.50;;;;;;4974639;28;20103;-92
2020/12/28 01:57:15;;;;;;;9.50;3.70;;;1.70;85.40;;;;;;4975731;28;20436;-92
2020/12/28 01:59:41;;;;;;;7.68;2.90;;;1.70;85.70;;;;;;4974260;28;20023;-92
2020/12/28 02:02:09;;;;;;;9.80;3.90;;;1.70;85.70;;;;;;4973777;28;20112;-91
2020/12/28 02:04:35;;;;;;;9.40;3.13;;;1.80;85.70;;;;;;4973050;28;20419;-90
2020/12/28 02:07:03;;;;;;;8.13;3.55;;;1.80;86.00;;;;;;4958250;28;20037;-91
2020/12/28 02:09:29;;;;;;;7.05;2.75;;;1.90;85.90;;;;;;4973514;28;20030;-91
2020/12/28 02:11:55;;;;;;;10.35;3.72;;;1.90;85.80;;;;;;4992518;28;20113;-91
2020/12/28 02:14:21;;;;;;;6.13;2.90;;;1.90;85.90;;;;;;4974540;28;20026;-90
2020/12/28 02:16:46;;;;;;;9.35;3.83;;;1.90;86.20;;;;;;4973508;28;20439;-92
2020/12/28 02:19:12;;;;;;;7.50;3.22;;;1.90;85.90;;;;;;4980860;28;20495;-91
2020/12/28 02:21:38;;;;;;;7.85;3.10;;;2.00;85.80;;;;;;4973496;28;20094;-92
2020/12/28 02:24:04;;;;;;;11.48;3.50;;;2.00;85.60;;;;;;4973487;28;20382;-91
2020/12/28 02:26:30;;;;;;;9.57;2.85;;;1.90;85.50;;;;;;4973833;28;20027;-91
2020/12/28 02:28:55;;;;;;;6.38;2.90;;;1.90;85.60;;;;;;4973151;28;20431;-91
2020/12/28 02:31:21;;;;;;;8.60;3.13;;;1.90;85.70;;;;;;4973139;28;20038;-91
2020/12/28 02:33:46;;;;;;;9.85;3.83;;;1.90;85.80;;;;;;4981944;28;20030;-91
2020/12/28 02:36:12;;;;;;;8.35;3.83;;;2.00;86.70;;;;;;4972679;28;20046;-91
2020/12/28 02:38:38;;;;;;;8.77;3.40;;;2.00;85.90;;;;;;4981688;28;20027;-91
2020/12/28 02:41:05;;;;;;;8.95;3.38;;;2.10;85.90;;;;;;4957154;28;20063;-94
2020/12/28 02:43:30;;;;;;;6.28;2.20;;;2.10;86.10;;;;;;4970101;28;20018;-91
2020/12/28 02:45:58;;;;;;;11.85;3.40;;;2.10;85.90;;;;;;4958084;28;20034;-94
2020/12/28 02:48:24;;;;;;;6.90;2.95;;;2.10;85.60;;;;;;4974432;28;20103;-93
2020/12/28 02:50:50;;;;;;;8.05;3.50;;;2.10;85.60;;;;;;4959523;28;20023;-94
2020/12/28 02:53:16;;;;;;;9.43;3.50;;;2.10;85.70;;;;;;4975105;28;20109;-93
2020/12/28 02:55:42;;;;;;;8.18;3.00;;;2.10;85.80;;;;;;4992645;28;20051;-93
2020/12/28 02:58:08;;;;;;;8.07;3.38;;;2.10;85.80;;;;;;4957887;28;20085;-94
2020/12/28 03:00:33;;;;;;;9.10;3.45;;;2.10;85.80;;;;;;4957671;28;20027;-94
2020/12/28 03:02:59;;;;;;;8.43;3.15;;;2.10;85.80;;;;;;4956913;28;20049;-92
2020/12/28 03:05:24;;;;;;;7.65;3.10;;;2.10;85.80;;;;;;4980401;28;20023;-93
2020/12/28 03:07:50;;;;;;;5.50;2.40;;;2.20;86.00;;;;;;4992788;28;20038;-92
2020/12/28 03:10:16;;;;;;;8.80;3.50;;;2.20;85.90;;;;;;4973979;28;20113;-94
2020/12/28 03:12:41;;;;;;;8.02;3.78;;;2.20;85.90;;;;;;4983960;28;20502;-95
2020/12/28 03:15:07;;;;;;;8.43;3.30;;;2.20;85.80;;;;;;4973792;28;20084;-94
2020/12/28 03:17:33;;;;;;;8.95;3.40;;;2.20;85.80;;;;;;4995695;28;20031;-94
2020/12/28 03:19:58;;;;;;;8.90;3.55;;;2.20;85.80;;;;;;4990259;28;20023;-94
2020/12/28 03:22:24;;;;;;;9.07;3.75;;;2.10;85.70;;;;;;4977151;28;20039;-94
2020/12/28 03:24:50;;;;;;;7.43;3.20;;;2.20;85.80;;;;;;4977663;28;20019;-93
2020/12/28 03:27:16;;;;;;;10.65;4.07;;;2.20;85.80;;;;;;4986394;28;20391;-95
2020/12/28 03:29:42;;;;;;;9.10;3.47;;;2.20;86.10;;;;;;4977419;28;20023;-92
2020/12/28 03:32:07;;;;;;;9.07;3.45;;;2.20;85.90;;;;;;4980335;28;20031;-92
2020/12/28 03:34:34;;;;;;;8.43;3.50;;;2.30;85.90;;;;;;4979921;28;20055;-91
2020/12/28 03:37:00;;;;;;;9.68;3.50;;;2.20;85.80;;;;;;4976897;28;20045;-91
2020/12/28 03:39:25;;;;;;;9.05;3.90;;;2.20;85.60;;;;;;4978996;28;20023;-92
2020/12/28 03:41:52;;;;;;;9.38;3.97;;;2.20;85.20;;;;;;4976968;28;20486;-92
2020/12/28 03:44:17;;;;;;;9.05;3.83;;;2.10;85.20;;;;;;4976812;28;20105;-91
2020/12/28 03:46:43;;;;;;;8.60;3.38;;;2.10;85.50;;;;;;4988460;28;20486;-92
2020/12/28 03:49:09;;;;;;;8.85;3.35;;;2.10;85.80;;;;;;4982689;28;20503;-92
2020/12/28 03:51:34;;;;;;;10.48;3.83;;;2.10;85.80;;;;;;4984818;28;20031;-93
2020/12/28 03:54:01;;;;;;;6.97;2.85;;;2.10;85.40;;;;;;4977598;28;20038;-93
2020/12/28 03:56:27;;;;;;;9.20;3.70;;;1.90;85.10;;;;;;4976783;28;20035;-92
2020/12/28 03:58:56;;;;;;;9.13;3.45;;;2.00;85.10;;;;;;4976971;28;20019;-92
2020/12/28 04:01:24;;;;;;;7.43;2.85;;;2.00;85.30;;;;;;4976579;28;20110;-93
2020/12/28 04:03:53;;;;;;;7.85;3.28;;;1.90;85.40;;;;;;4976935;28;20051;-92
2020/12/28 04:06:19;;;;;;;7.78;3.00;;;1.90;85.50;;;;;;4976549;28;20041;-92
2020/12/28 04:08:44;;;;;;;8.05;3.47;;;2.00;85.70;;;;;;4979035;28;20031;-92
2020/12/28 04:11:10;;;;;;;10.45;3.70;;;2.00;86.50;;;;;;4975903;28;20023;-90
2020/12/28 04:13:36;;;;;;;8.55;3.58;;;2.00;85.80;;;;;;4977689;28;20045;-90
2020/12/28 04:16:01;;;;;;;6.03;3.10;;;2.00;85.80;;;;;;4977369;28;20019;-89
2020/12/28 04:18:27;;;;;;;11.07;3.70;;;2.00;85.70;;;;;;4976460;28;20117;-89
2020/12/28 04:20:52;;;;;;;9.20;3.60;;;2.00;85.40;;;;;;4980287;28;20018;-90
2020/12/28 04:23:18;;;;;;;9.45;3.63;;;1.90;85.20;;;;;;4966385;28;20522;-90
2020/12/28 04:25:44;;;;;;;9.70;3.80;;;1.90;85.10;;;;;;4995520;28;20095;-90
2020/12/28 04:28:09;;;;;;;10.05;4.07;;;1.80;85.00;;;;;;4975392;28;20494;-90
2020/12/28 04:30:35;;;;;;;9.43;4.00;;;1.80;84.90;;;;;;4978019;28;20037;-91
2020/12/28 04:33:01;;;;;;;8.88;3.53;;;1.70;85.10;;;;;;4976773;28;20035;-90
2020/12/28 04:35:27;;;;;;;8.20;3.63;;;1.70;85.40;;;;;;4974711;28;20023;-91
2020/12/28 04:37:53;;;;;;;8.52;3.50;;;1.70;85.50;;;;;;4973968;28;20085;-91
2020/12/28 04:40:18;;;;;;;8.90;3.33;;;1.80;85.90;;;;;;4976137;28;20027;-90
2020/12/28 04:42:44;;;;;;;8.50;3.38;;;1.90;86.10;;;;;;4998521;28;20121;-90
2020/12/28 04:45:10;;;;;;;7.80;2.92;;;1.90;85.90;;;;;;4978517;28;20027;-90
2020/12/28 04:47:37;;;;;;;7.35;3.40;;;1.90;85.80;;;;;;4974954;28;20057;-91
2020/12/28 04:50:04;;;;;;;8.77;3.42;;;2.00;86.10;;;;;;4977728;28;20024;-90
2020/12/28 04:52:30;;;;;;;7.72;3.13;;;2.00;86.00;;;;;;4974936;28;20023;-90
2020/12/28 04:54:56;;;;;;;12.40;4.22;;;2.00;86.00;;;;;;4976080;28;20487;-91
2020/12/28 04:57:21;;;;;;;8.13;3.33;;;2.00;85.90;;;;;;4975845;28;20035;-91
2020/12/28 04:59:56;;;;;;;9.60;3.58;;;2.10;86.10;;;;;;4962381;28;20023;-90
2020/12/28 05:02:23;;;;;;;9.85;3.80;;;2.10;86.00;;;;;;4974500;28;20027;-90
2020/12/28 05:04:49;;;;;;;9.27;3.47;;;2.10;86.10;;;;;;4961515;28;20038;-91
2020/12/28 05:07:15;;;;;;;8.00;3.20;;;2.10;85.90;;;;;;4980794;28;20035;-90
2020/12/28 05:09:40;;;;;;;6.57;2.95;;;2.20;86.20;;;;;;4959788;28;20062;-91
2020/12/28 05:12:06;;;;;;;8.45;3.50;;;2.20;86.20;;;;;;4943298;28;20038;-90
2020/12/28 05:14:33;;;;;;;9.07;3.80;;;2.30;86.10;;;;;;4974151;28;20379;-90
2020/12/28 05:17:07;;;;;;;8.05;3.35;;;2.30;86.10;;;;;;4974953;28;20054;-91
2020/12/28 05:19:34;;;;;;;10.38;3.90;;;2.30;86.00;;;;;;4992534;28;20054;-90
2020/12/28 05:22:00;;;;;;;6.97;3.25;;;2.30;85.80;;;;;;4991251;28;20106;-90
2020/12/28 05:24:26;;;;;;;8.60;3.50;;;2.30;85.70;;;;;;4973717;28;20102;-89
2020/12/28 05:26:53;;;;;;;8.45;3.58;;;2.30;85.90;;;;;;4974374;28;20038;-90
2020/12/28 05:29:24;;;;;;;9.32;3.85;;;2.30;86.10;;;;;;4982243;28;20045;-90
2020/12/28 05:31:53;;;;;;;8.65;3.65;;;2.30;85.90;;;;;;4978450;28;20050;-90
2020/12/28 05:34:22;;;;;;;7.65;3.25;;;2.30;86.00;;;;;;4997807;28;20035;-88
2020/12/28 05:36:50;;;;;;;8.35;3.78;;;2.30;85.80;;;;;;4977675;28;20023;-90
2020/12/28 05:39:18;;;;;;;10.82;3.92;;;2.20;85.70;;;;;;4978375;28;20475;-90
2020/12/28 05:41:53;;;;;;;7.97;3.40;;;2.30;86.30;;;;;;4992882;28;20030;-89
2020/12/28 05:44:19;;;;;;;8.80;3.30;;;2.30;86.10;;;;;;4990055;28;20058;-90
2020/12/28 05:46:59;;;;;;;9.82;3.50;;;2.40;86.00;;;;;;4946749;28;20061;-90
2020/12/28 05:49:30;;;;;;;9.13;3.28;;;2.30;85.80;;;;;;4972218;28;20031;-90
2020/12/28 05:51:58;;;;;;;8.93;3.72;;;2.40;85.90;;;;;;4998026;28;20027;-90
2020/12/28 05:54:27;;;;;;;8.90;4.20;;;2.40;86.20;;;;;;4971017;28;20468;-88
2020/12/28 05:56:54;;;;;;;10.10;4.05;;;2.40;86.00;;;;;;4981800;28;20411;-90
2020/12/28 05:59:21;;;;;;;10.88;4.00;;;2.30;85.70;;;;;;4999180;28;20541;-91
2020/12/28 06:01:48;;;;;;;9.75;3.30;;;2.40;85.80;;;;;;4973512;28;20045;-90
2020/12/28 06:04:15;;;;;;;8.68;3.60;;;2.30;85.50;;;;;;4974863;28;20046;-89
2020/12/28 06:06:42;;;;;;;9.85;4.35;;;2.30;85.80;;;;;;4973909;28;20045;-90
2020/12/28 06:09:08;;;;;;;9.50;4.03;;;2.40;86.00;;;;;;4973259;28;20078;-90
2020/12/28 06:11:34;;;;;;;8.52;3.35;;;2.30;85.80;;;;;;4978995;28;20117;-89
2020/12/28 06:14:10;;;;;;;9.35;3.95;;;2.30;85.80;;;;;;4976044;28;20026;-89
2020/12/28 06:16:36;;;;;;;8.90;3.53;;;2.30;85.80;;;;;;4974993;28;20450;-88
2020/12/28 06:19:02;;;;;;;7.93;3.30;;;2.30;86.10;;;;;;4957740;28;20035;-87
2020/12/28 06:21:36;;;;;;;10.80;4.50;;;2.40;86.00;;;;;;4957196;28;20027;-88
2020/12/28 06:24:01;;;;;;;9.55;3.85;;;2.40;85.80;;;;;;4956902;28;20062;-88
2020/12/28 06:26:27;;;;;;;11.32;4.53;;;2.30;85.70;;;;;;4991209;28;20430;-88
2020/12/28 06:29:06;;;;;;;12.43;4.82;;;2.30;85.60;;;;;;4956712;28;20034;-83
2020/12/28 06:31:32;;;;;;;9.52;3.90;;;2.30;85.70;;;;;;4973170;28;20109;-84
2020/12/28 06:33:58;;;;;;;11.77;4.55;;;2.30;85.60;;;;;;4991878;28;20491;-85
2020/12/28 06:36:24;;;;;;;9.20;4.30;;;2.30;85.80;;;;;;4972864;28;20053;-84
2020/12/28 06:38:57;;;;;;;10.90;4.68;;;2.20;85.90;;;;;;4974252;28;20027;-84
2020/12/28 06:41:31;;;;;;;8.43;3.85;;;2.20;85.50;;;;;;4956617;28;20042;-84
2020/12/28 06:43:59;;;;;;;11.05;4.20;;;2.20;85.30;;;;;;4991841;28;20030;-84
2020/12/28 06:46:25;;;;;;;10.68;4.57;;;2.10;85.30;;;;;;4974313;28;20077;-86
2020/12/28 06:48:51;;;;;;;12.27;5.20;;;2.20;87.40;;;;;;4972991;28;20054;-89
2020/12/28 06:51:17;;;;;;;11.13;4.80;;;2.30;86.60;;;;;;4972143;28;20054;-88
2020/12/28 06:53:43;;;;;;;10.00;4.35;;;2.30;85.70;;;;;;4972526;28;20430;-80
2020/12/28 06:56:11;;;;;;;10.13;3.90;;;2.30;85.70;;;;;;4972809;28;20026;-80
2020/12/28 06:58:37;;;;;;;12.60;4.57;;;2.30;85.80;;;;;;4992018;28;20500;-85
2020/12/28 07:01:05;;;;;;;10.77;4.28;;;2.30;86.10;;;;;;4990994;28;20071;-85
2020/12/28 07:03:31;;;;;;;8.95;4.20;;;2.30;86.00;;;;;;4977621;28;20026;-86
2020/12/28 07:06:01;;;;;;;9.45;3.85;;;2.40;86.20;;;;;;4972154;28;20015;-85
2020/12/28 07:08:27;;;;;;;10.60;4.20;;;2.40;86.20;;;;;;4974677;28;20094;-85
2020/12/28 07:11:03;;;;;;;11.25;3.95;;;2.50;86.30;;;;;;4972599;28;20030;-85
2020/12/28 07:13:30;;;;;;;8.30;3.80;;;2.50;86.20;;;;;;4972312;28;20037;-86
2020/12/28 07:16:06;;;;;;;9.75;4.22;;;2.50;85.80;;;;;;4971745;28;20038;-86
2020/12/28 07:18:32;;;;;;;7.85;3.55;;;2.50;85.30;;;;;;4973590;28;20387;-86
2020/12/28 07:20:59;;;;;;;8.57;3.72;;;2.30;85.10;;;;;;4995783;28;20015;-86
2020/12/28 07:23:29;;;;;;;11.40;4.05;;;2.20;84.70;;;;;;4990182;28;20066;-86
2020/12/28 07:26:11;;;;;;;10.95;4.45;;;2.10;84.70;;;;;;4973310;28;20027;-86
2020/12/28 07:28:39;;;;;;;11.38;4.53;;;2.00;84.60;;;;;;4974876;28;20039;-87
2020/12/28 07:31:07;;;;;;;9.70;4.32;;;1.90;84.70;;;;;;4973624;28;20471;-87
2020/12/28 07:33:34;;;;;;;11.43;4.45;;;1.90;85.40;;;;;;4990376;28;20088;-87
2020/12/28 07:36:10;;;;;;;10.07;4.10;;;2.00;86.00;;;;;;4972269;28;20023;-86
2020/12/28 07:38:36;;;;;;;10.27;4.00;;;2.10;86.30;;;;;;4989555;28;20031;-85
2020/12/28 07:41:02;;;;;;;11.10;4.25;;;2.10;85.80;;;;;;4971827;28;20364;-86
2020/12/28 07:43:29;;;;;;;10.73;4.10;;;2.10;85.40;;;;;;4976891;28;20394;-87
2020/12/28 07:46:36;;;;;;;10.10;4.10;;;2.10;85.30;;;;;;4979830;28;20542;-86
2020/12/28 07:49:31;;;;;;;11.10;3.67;;;2.10;85.40;;;;;;4950775;28;20023;-86
2020/12/28 07:52:20;;;;;;;7.88;3.88;;;2.00;85.30;;;;;;4969923;28;20027;-86
2020/12/28 07:55:10;;;;;;;11.48;3.90;;;2.00;85.50;;;;;;4972338;28;20387;-85
2020/12/28 07:57:42;;;;;;;9.93;3.92;;;2.00;85.70;;;;;;4987940;28;20086;-85
2020/12/28 08:00:11;;;;;;;9.63;4.22;;;2.10;86.40;;;;;;4968832;28;20037;-84
2020/12/28 08:02:44;;;;;;;10.25;4.22;;;2.10;85.90;;;;;;4992572;28;20475;-85
2020/12/28 08:05:11;;;;;;;10.00;4.32;;;2.10;85.90;;;;;;4975114;28;20471;-85
2020/12/28 08:07:37;;;;;;;9.88;4.18;;;2.20;85.80;;;;;;4975114;28;20156;-88
2020/12/28 08:10:08;;;;;;;14.60;6.15;;;2.20;85.80;;;;;;4998999;28;20023;-86
2020/12/28 08:12:36;;;;;;;12.48;5.32;;;2.20;86.00;;;;;;4975614;28;20019;-86
2020/12/28 08:15:02;;;;;;;10.95;5.05;;;2.30;86.30;;;;;;4997048;28;20057;-86
2020/12/28 08:17:28;;;;;;;14.63;4.97;;;2.40;86.40;;;;;;4997546;28;20039;-87
2020/12/28 08:20:14;;;;;;;8.65;3.58;;;2.40;86.40;;;;;;4948270;28;20031;-87
2020/12/28 08:22:40;;;;;;;9.50;4.30;;;2.60;86.70;;;;;;4973708;28;20442;-85
2020/12/28 08:25:11;;;;;;;9.65;3.90;;;2.60;86.60;;;;;;4976304;28;20027;-84
2020/12/28 08:27:37;;;;;;;10.35;4.35;;;2.70;86.10;;;;;;4994486;28;20038;-86
2020/12/28 08:30:08;;;;;;;10.43;4.22;;;2.70;86.10;;;;;;4991063;28;20030;-84
2020/12/28 08:32:35;;;;;;;9.88;3.97;;;2.70;86.40;;;;;;4974917;28;20015;-87
2020/12/28 08:35:03;;;;;;;9.57;4.28;;;2.80;86.70;;;;;;4975206;28;20490;-86
2020/12/28 08:37:29;;;;;;;8.88;3.90;;;2.90;86.80;;;;;;4964197;28;20388;-87
2020/12/28 08:39:55;;;;;;;9.85;3.78;;;3.00;86.90;;;;;;4958393;28;20030;-87
2020/12/28 08:42:28;;;;;;;9.63;4.10;;;3.10;86.70;;;;;;4995472;28;20036;-87
2020/12/28 08:44:54;;;;;;;9.23;4.00;;;3.20;86.60;;;;;;4977510;28;20023;-88
2020/12/28 08:47:22;;;;;;;9.82;4.43;;;3.30;86.70;;;;;;4977088;28;20026;-87
2020/12/28 08:49:49;;;;;;;12.30;4.85;;;3.30;86.60;;;;;;4993020;28;20114;-87
2020/12/28 08:52:19;;;;;;;15.25;6.28;;;3.30;86.40;;;;;;4958523;28;20027;-84
2020/12/28 08:54:52;;;;;;;11.38;5.05;;;3.40;86.40;;;;;;4974695;28;20086;-85
2020/12/28 08:57:19;;;;;;;13.70;5.45;;;3.40;86.40;;;;;;4990611;28;20098;-85
2020/12/28 08:59:45;;;;;;;11.68;4.68;;;3.40;86.00;;;;;;4992597;28;20027;-86
2020/12/28 09:02:16;;;;;;;11.18;4.43;;;3.40;86.60;;;;;;4958421;28;20043;-87
2020/12/28 09:04:41;;;;;;;10.02;4.45;;;3.50;86.80;;;;;;4972202;28;20026;-84
2020/12/28 09:07:07;;;;;;;11.82;4.57;;;3.60;87.00;;;;;;4974466;28;20037;-89
2020/12/28 09:09:33;;;;;;;13.75;4.90;;;3.60;86.80;;;;;;4998933;28;20395;-87
2020/12/28 09:11:58;;;;;;;13.27;5.63;;;3.70;86.50;;;;;;4976882;28;20038;-85
2020/12/28 09:14:24;;;;;;;12.05;4.90;;;3.70;86.60;;;;;;4974868;28;20023;-82
2020/12/28 09:16:50;;;;;;;12.98;5.18;;;3.80;86.80;;;;;;4974878;28;20568;-82
2020/12/28 09:19:16;;;;;;;10.68;4.72;;;3.80;86.60;;;;;;4994949;28;20027;-82
2020/12/28 09:21:44;;;;;;;10.70;4.32;;;3.90;86.70;;;;;;4977558;28;20100;-82
2020/12/28 09:24:10;;;;;;;9.10;4.25;;;4.00;87.00;;;;;;4993368;28;20042;-83
2020/12/28 09:26:35;;;;;;;12.57;4.47;;;4.10;86.90;;;;;;4973780;28;20117;-82
2020/12/28 09:29:01;;;;;;;11.05;4.60;;;4.10;86.90;;;;;;4973692;28;20023;-82
2020/12/28 09:31:27;;;;;;;10.85;4.60;;;4.10;86.30;;;;;;4991792;28;20491;-81
2020/12/28 09:33:52;;;;;;;9.85;4.07;;;4.10;86.20;;;;;;4989548;28;20034;-83
2020/12/28 09:36:19;;;;;;;13.57;4.72;;;4.20;86.50;;;;;;4981736;28;20341;-82
2020/12/28 09:38:45;;;;;;;10.43;4.10;;;4.20;86.60;;;;;;4973304;28;20493;-83
2020/12/28 09:41:11;;;;;;;7.88;3.60;;;4.20;86.50;;;;;;4973404;28;20031;-83
2020/12/28 09:43:38;;;;;;;9.82;4.55;;;4.20;86.20;;;;;;4992618;28;20026;-83
2020/12/28 09:46:04;;;;;;;12.20;4.95;;;4.20;86.20;;;;;;4972742;28;20038;-83
2020/12/28 09:48:29;;;;;;;12.50;4.82;;;4.20;86.10;;;;;;4974496;28;20019;-83
2020/12/28 09:50:55;;;;;;;11.10;4.72;;;4.20;86.30;;;;;;4991178;28;20026;-83
2020/12/28 09:53:21;;;;;;;10.77;4.00;;;4.20;86.10;;;;;;4972476;28;20415;-87
2020/12/28 09:55:46;;;;;;;9.25;4.20;;;4.20;86.30;;;;;;4973316;28;20030;-86
2020/12/28 09:58:12;;;;;;;11.30;5.13;;;4.20;86.50;;;;;;4974325;28;20038;-86
2020/12/28 10:00:38;;;;;;;9.85;4.63;;;4.20;86.40;;;;;;4992862;28;20030;-86
2020/12/28 10:03:03;;;;;;;9.10;4.00;;;4.30;86.30;;;;;;4973064;28;20034;-88
2020/12/28 10:05:29;;;;;;;18.52;7.93;;;4.20;86.20;;;;;;4975905;28;20081;-88
2020/12/28 10:07:55;;;;;;;10.20;4.18;;;4.30;86.50;;;;;;4972383;28;20031;-86
2020/12/28 10:10:20;;;;;;;10.52;4.40;;;4.30;86.60;;;;;;4972352;28;20479;-86
2020/12/28 10:12:46;;;;;;;8.05;3.42;;;4.40;86.60;;;;;;4974262;28;20086;-86
2020/12/28 10:15:11;;;;;;;11.07;4.50;;;4.40;86.80;;;;;;4974707;28;20467;-90
2020/12/28 10:17:37;;;;;;;9.98;4.20;;;4.50;86.20;;;;;;4956843;28;20045;-86
2020/12/28 10:20:04;;;;;;;11.65;4.15;;;4.50;86.50;;;;;;4993992;28;20167;-86
2020/12/28 10:22:29;;;;;;;10.98;4.10;;;4.50;86.60;;;;;;4972632;28;20045;-86
2020/12/28 10:24:55;;;;;;;9.90;4.07;;;4.60;86.90;;;;;;4973136;28;20027;-85
2020/12/28 10:27:21;;;;;;;9.75;4.88;;;4.60;86.70;;;;;;4990827;28;20022;-86
2020/12/28 10:29:47;;;;;;;9.57;3.85;;;4.70;86.50;;;;;;4972484;28;20053;-86
2020/12/28 10:32:13;;;;;;;10.15;4.10;;;4.70;86.10;;;;;;4973292;28;20030;-87
2020/12/28 10:34:39;;;;;;;10.63;4.10;;;4.70;86.90;;;;;;4994400;28;20262;-86
2020/12/28 10:37:04;;;;;;;10.68;4.90;;;4.70;86.40;;;;;;4972489;28;20065;-87
2020/12/28 10:39:30;;;;;;;25.75;11.18;;;4.70;86.40;;;;;;4963190;28;20035;-87
2020/12/28 10:41:55;;;;;;;14.27;6.72;;;4.80;86.70;;;;;;4992924;28;20026;-86
2020/12/28 10:44:22;;;;;;;11.30;5.13;;;4.80;86.30;;;;;;4973665;28;20023;-87
2020/12/28 10:46:49;;;;;;;11.45;4.80;;;4.80;86.40;;;;;;4992545;28;20102;-86
2020/12/28 10:49:14;;;;;;;10.90;4.13;;;4.80;86.40;;;;;;4973452;28;20095;-87
2020/12/28 10:51:43;;;;;;;11.32;4.50;;;4.80;86.60;;;;;;4974839;28;20491;-87
2020/12/28 10:54:09;;;;;;;12.43;4.30;;;4.90;86.80;;;;;;4969755;28;20518;-84
2020/12/28 10:56:34;;;;;;;11.52;4.18;;;5.00;86.90;;;;;;4974465;28;20062;-85
2020/12/28 10:59:00;;;;;;;10.95;4.80;;;5.00;86.60;;;;;;4995579;28;20027;-87
2020/12/28 11:01:27;;;;;;;9.63;4.15;;;5.00;86.20;;;;;;4973944;28;20035;-88
2020/12/28 11:03:54;;;;;;;9.88;4.18;;;5.00;86.30;;;;;;4992180;28;20019;-87
2020/12/28 11:06:20;;;;;;;12.48;4.90;;;5.00;86.30;;;;;;4974801;28;20121;-89
2020/12/28 11:08:47;;;;;;;9.85;4.00;;;5.00;86.60;;;;;;4978091;28;20089;-88
2020/12/28 11:11:13;;;;;;;10.07;4.30;;;5.00;86.30;;;;;;4973920;28;20027;-86
2020/12/28 11:13:38;;;;;;;10.35;4.30;;;5.10;86.60;;;;;;4989868;28;20027;-86
2020/12/28 11:16:04;;;;;;;11.50;4.88;;;5.10;86.70;;;;;;4978070;28;20023;-86
2020/12/28 11:18:30;;;;;;;11.35;5.07;;;5.20;86.90;;;;;;4976546;28;20027;-86
2020/12/28 11:20:55;;;;;;;12.15;4.57;;;5.30;86.90;;;;;;4974543;28;20035;-85
2020/12/28 11:23:21;;;;;;;11.73;5.18;;;5.30;86.60;;;;;;4972970;28;20042;-94
2020/12/28 11:25:48;;;;;;;15.20;5.93;;;5.40;86.50;;;;;;4977229;28;20030;-93
2020/12/28 11:28:15;;;;;;;12.35;5.25;;;5.30;86.70;;;;;;4973549;28;20027;-90
2020/12/28 11:30:42;;;;;;;10.38;4.28;;;5.40;86.70;;;;;;4994424;28;20097;-90
2020/12/28 11:33:07;;;;;;;10.73;4.97;;;5.40;86.60;;;;;;4956656;28;20035;-89
2020/12/28 11:35:33;;;;;;;11.20;4.93;;;5.40;86.40;;;;;;4957527;28;20073;-90
2020/12/28 11:38:00;;;;;;;11.52;4.93;;;5.50;86.30;;;;;;4983469;28;20042;-92
2020/12/28 11:40:25;;;;;;;11.07;4.93;;;5.50;86.60;;;;;;4987956;28;20067;-92
2020/12/28 11:42:51;;;;;;;14.02;5.82;;;5.60;86.60;;;;;;4977430;28;20034;-93
2020/12/28 11:45:18;;;;;;;11.93;4.78;;;5.60;86.60;;;;;;4984710;28;20023;-92
2020/12/28 11:47:46;;;;;;;9.95;4.35;;;5.70;86.80;;;;;;4978107;28;20509;-90
2020/12/28 11:50:12;;;;;;;10.25;4.80;;;5.70;86.10;;;;;;4958042;28;20030;-90
2020/12/28 11:52:37;;;;;;;11.32;4.82;;;5.70;86.40;;;;;;4992295;28;20038;-90
2020/12/28 11:55:03;;;;;;;11.82;5.82;;;5.80;86.70;;;;;;4959955;28;20045;-90
2020/12/28 11:57:31;;;;;;;11.02;5.18;;;5.80;86.50;;;;;;4975819;28;20038;-90
2020/12/28 11:59:58;;;;;;;12.00;4.75;;;5.80;86.50;;;;;;4984448;28;20034;-90
2020/12/28 12:02:23;;;;;;;12.63;5.10;;;5.90;86.70;;;;;;4973173;28;20019;-90
2020/12/28 12:04:52;;;;;;;13.02;5.45;;;5.90;86.90;;;;;;4982609;28;20399;-90
2020/12/28 12:07:19;;;;;;;10.35;4.45;;;6.00;86.80;;;;;;4975445;28;20076;-90
2020/12/28 12:09:46;;;;;;;10.38;4.38;;;6.10;86.90;;;;;;4960174;28;20027;-90
2020/12/28 12:12:12;;;;;;;11.45;3.90;;;6.10;86.80;;;;;;4975431;28;20030;-90
2020/12/28 12:14:38;;;;;;;9.88;4.18;;;6.20;87.20;;;;;;4998965;28;20031;-91
2020/12/28 12:17:04;;;;;;;11.38;5.53;;;6.20;86.40;;;;;;4977178;28;20041;-91
2020/12/28 12:19:29;;;;;;;14.48;5.20;;;6.20;86.40;;;;;;4960324;28;20105;-92
2020/12/28 12:21:55;;;;;;;10.02;4.45;;;6.20;86.20;;;;;;4972661;28;20051;-92
2020/12/28 12:24:22;;;;;;;8.88;3.88;;;6.20;86.20;;;;;;4978359;28;20109;-92
2020/12/28 12:26:47;;;;;;;9.85;4.13;;;6.20;86.30;;;;;;4976874;28;20064;-93
2020/12/28 12:29:13;;;;;;;12.27;4.65;;;6.20;85.80;;;;;;4983781;28;20050;-90
2020/12/28 12:31:39;;;;;;;11.52;4.45;;;6.20;86.00;;;;;;4961511;28;20035;-94
2020/12/28 12:34:04;;;;;;;12.15;4.40;;;6.20;86.10;;;;;;4976315;28;20023;-89
2020/12/28 12:36:30;;;;;;;12.27;4.72;;;6.20;85.80;;;;;;4975431;28;20090;-94
2020/12/28 12:38:56;;;;;;;9.98;4.53;;;6.10;85.90;;;;;;4992519;28;20559;-90
2020/12/28 12:41:22;;;;;;;14.40;5.55;;;6.10;85.70;;;;;;4945815;28;20121;-91
2020/12/28 12:43:48;;;;;;;13.57;6.47;;;6.10;85.80;;;;;;4959703;28;20160;-94
2020/12/28 12:46:14;;;;;;;13.55;5.63;;;6.10;85.50;;;;;;4985889;28;20081;-90
2020/12/28 12:48:41;;;;;;;14.65;5.35;;;6.00;85.60;;;;;;4965664;28;20478;-90
2020/12/28 12:51:07;;;;;;;13.27;5.95;;;6.00;85.90;;;;;;4977129;28;20399;-91
2020/12/28 12:53:33;;;;;;;14.63;5.63;;;6.00;86.10;;;;;;4976551;28;20027;-93